sensor_id;sensor_type;location;lat;lon;timestamp;temperature;humidity
43999;DHT22;51319;52.162;5.302;2022-07-10T00:01:13;15.80;72.00
43999;DHT22;51319;52.162;5.302;2022-07-10T00:03:39;15.90;72.00
43999;DHT22;51319;52.162;5.302;2022-07-10T00:06:06;15.90;72.10
43999;DHT22;51319;52.162;5.302;2022-07-10T00:08:32;15.80;72.20
43999;DHT22;51319;52.162;5.302;2022-07-10T00:10:59;15.80;72.40
43999;DHT22;51319;52.162;5.302;2022-07-10T00:13:25;15.80;72.50
43999;DHT22;51319;52.162;5.302;2022-07-10T00:15:51;15.80;72.70
43999;DHT22;51319;52.162;5.302;2022-07-10T00:18:17;15.70;72.80
43999;DHT22;51319;52.162;5.302;2022-07-10T00:20:43;15.70;72.90
43999;DHT22;51319;52.162;5.302;2022-07-10T00:23:09;15.60;73.10
43999;DHT22;51319;52.162;5.302;2022-07-10T00:25:35;15.50;73.30
43999;DHT22;51319;52.162;5.302;2022-07-10T00:28:04;15.50;73.60
43999;DHT22;51319;52.162;5.302;2022-07-10T00:30:31;15.50;74.00
43999;DHT22;51319;52.162;5.302;2022-07-10T00:32:57;15.40;74.00
43999;DHT22;51319;52.162;5.302;2022-07-10T00:35:25;15.40;74.60
43999;DHT22;51319;52.162;5.302;2022-07-10T00:37:51;15.40;74.40
43999;DHT22;51319;52.162;5.302;2022-07-10T00:40:17;15.40;74.60
43999;DHT22;51319;52.162;5.302;2022-07-10T00:42:43;15.30;74.60
43999;DHT22;51319;52.162;5.302;2022-07-10T00:45:11;15.30;74.70
43999;DHT22;51319;52.162;5.302;2022-07-10T00:47:38;15.30;74.70
43999;DHT22;51319;52.162;5.302;2022-07-10T00:50:05;15.30;74.70
43999;DHT22;51319;52.162;5.302;2022-07-10T00:52:34;15.30;74.90
43999;DHT22;51319;52.162;5.302;2022-07-10T00:55:08;15.40;75.00
43999;DHT22;51319;52.162;5.302;2022-07-10T00:57:36;15.40;74.80
43999;DHT22;51319;52.162;5.302;2022-07-10T01:00:04;15.50;74.60
43999;DHT22;51319;52.162;5.302;2022-07-10T01:02:30;15.60;74.00
43999;DHT22;51319;52.162;5.302;2022-07-10T01:04:57;15.70;73.70
43999;DHT22;51319;52.162;5.302;2022-07-10T01:07:24;15.70;73.60
43999;DHT22;51319;52.162;5.302;2022-07-10T01:09:50;15.70;73.50
43999;DHT22;51319;52.162;5.302;2022-07-10T01:12:17;15.80;73.30
43999;DHT22;51319;52.162;5.302;2022-07-10T01:14:43;15.80;73.20
43999;DHT22;51319;52.162;5.302;2022-07-10T01:17:10;15.90;73.70
43999;DHT22;51319;52.162;5.302;2022-07-10T01:19:36;16.00;73.20
43999;DHT22;51319;52.162;5.302;2022-07-10T01:22:03;16.00;73.20
43999;DHT22;51319;52.162;5.302;2022-07-10T01:24:29;16.00;73.20
43999;DHT22;51319;52.162;5.302;2022-07-10T01:26:55;16.00;73.10
43999;DHT22;51319;52.162;5.302;2022-07-10T01:29:22;16.00;73.00
43999;DHT22;51319;52.162;5.302;2022-07-10T01:31:48;16.00;73.00
43999;DHT22;51319;52.162;5.302;2022-07-10T01:34:22;15.90;73.00
43999;DHT22;51319;52.162;5.302;2022-07-10T01:36:49;15.80;73.30
43999;DHT22;51319;52.162;5.302;2022-07-10T01:39:15;15.60;73.60
43999;DHT22;51319;52.162;5.302;2022-07-10T01:41:41;15.50;74.00
43999;DHT22;51319;52.162;5.302;2022-07-10T01:44:07;15.50;74.40
43999;DHT22;51319;52.162;5.302;2022-07-10T01:46:34;15.50;74.40
43999;DHT22;51319;52.162;5.302;2022-07-10T01:49:00;15.40;74.60
43999;DHT22;51319;52.162;5.302;2022-07-10T01:51:26;15.40;74.80
43999;DHT22;51319;52.162;5.302;2022-07-10T01:53:52;15.30;75.10
43999;DHT22;51319;52.162;5.302;2022-07-10T01:56:18;15.30;75.20
43999;DHT22;51319;52.162;5.302;2022-07-10T01:58:44;15.40;75.40
43999;DHT22;51319;52.162;5.302;2022-07-10T02:01:11;15.40;75.50
43999;DHT22;51319;52.162;5.302;2022-07-10T02:03:38;15.40;75.50
43999;DHT22;51319;52.162;5.302;2022-07-10T02:06:23;15.50;75.50
43999;DHT22;51319;52.162;5.302;2022-07-10T02:08:55;15.50;75.30
43999;DHT22;51319;52.162;5.302;2022-07-10T02:11:26;15.50;75.40
43999;DHT22;51319;52.162;5.302;2022-07-10T02:13:52;15.50;75.50
43999;DHT22;51319;52.162;5.302;2022-07-10T02:16:18;15.50;75.60
43999;DHT22;51319;52.162;5.302;2022-07-10T02:18:44;15.50;75.50
43999;DHT22;51319;52.162;5.302;2022-07-10T02:21:11;15.50;75.50
43999;DHT22;51319;52.162;5.302;2022-07-10T02:23:50;15.50;75.50
43999;DHT22;51319;52.162;5.302;2022-07-10T02:26:40;15.60;75.70
43999;DHT22;51319;52.162;5.302;2022-07-10T02:29:07;15.60;75.70
43999;DHT22;51319;52.162;5.302;2022-07-10T02:31:33;15.60;75.80
43999;DHT22;51319;52.162;5.302;2022-07-10T02:34:01;15.60;75.80
43999;DHT22;51319;52.162;5.302;2022-07-10T02:36:27;15.60;75.80
43999;DHT22;51319;52.162;5.302;2022-07-10T02:39:02;15.60;75.90
43999;DHT22;51319;52.162;5.302;2022-07-10T02:41:43;15.60;76.00
43999;DHT22;51319;52.162;5.302;2022-07-10T02:44:09;15.60;76.00
43999;DHT22;51319;52.162;5.302;2022-07-10T02:46:35;15.60;76.10
43999;DHT22;51319;52.162;5.302;2022-07-10T02:49:01;15.60;76.00
43999;DHT22;51319;52.162;5.302;2022-07-10T02:51:40;15.50;76.10
43999;DHT22;51319;52.162;5.302;2022-07-10T02:54:06;15.40;76.50
43999;DHT22;51319;52.162;5.302;2022-07-10T02:56:33;15.30;76.70
43999;DHT22;51319;52.162;5.302;2022-07-10T02:59:02;15.40;77.10
43999;DHT22;51319;52.162;5.302;2022-07-10T03:01:28;15.40;77.20
43999;DHT22;51319;52.162;5.302;2022-07-10T03:03:55;15.50;77.30
43999;DHT22;51319;52.162;5.302;2022-07-10T03:06:21;15.50;77.30
43999;DHT22;51319;52.162;5.302;2022-07-10T03:08:47;15.50;77.20
43999;DHT22;51319;52.162;5.302;2022-07-10T03:11:13;15.50;77.20
43999;DHT22;51319;52.162;5.302;2022-07-10T03:13:39;15.50;77.30
43999;DHT22;51319;52.162;5.302;2022-07-10T03:16:05;15.60;77.50
43999;DHT22;51319;52.162;5.302;2022-07-10T03:18:32;15.60;77.30
43999;DHT22;51319;52.162;5.302;2022-07-10T03:20:58;15.60;77.30
43999;DHT22;51319;52.162;5.302;2022-07-10T03:23:24;15.60;77.30
43999;DHT22;51319;52.162;5.302;2022-07-10T03:25:51;15.60;77.10
43999;DHT22;51319;52.162;5.302;2022-07-10T03:28:17;15.70;77.20
43999;DHT22;51319;52.162;5.302;2022-07-10T03:30:43;15.60;77.20
43999;DHT22;51319;52.162;5.302;2022-07-10T03:33:10;15.70;77.20
43999;DHT22;51319;52.162;5.302;2022-07-10T03:35:36;15.70;77.00
43999;DHT22;51319;52.162;5.302;2022-07-10T03:38:02;15.70;77.00
43999;DHT22;51319;52.162;5.302;2022-07-10T03:40:28;15.70;77.00
43999;DHT22;51319;52.162;5.302;2022-07-10T03:42:54;15.70;77.10
43999;DHT22;51319;52.162;5.302;2022-07-10T03:45:20;15.70;77.00
43999;DHT22;51319;52.162;5.302;2022-07-10T03:47:47;15.70;77.00
43999;DHT22;51319;52.162;5.302;2022-07-10T03:50:13;15.70;76.90
43999;DHT22;51319;52.162;5.302;2022-07-10T03:52:39;15.80;76.90
43999;DHT22;51319;52.162;5.302;2022-07-10T03:55:05;15.80;76.90
43999;DHT22;51319;52.162;5.302;2022-07-10T03:57:32;15.80;76.90
43999;DHT22;51319;52.162;5.302;2022-07-10T04:00:16;15.80;76.80
43999;DHT22;51319;52.162;5.302;2022-07-10T04:02:43;15.80;76.70
43999;DHT22;51319;52.162;5.302;2022-07-10T04:05:09;15.80;76.80
43999;DHT22;51319;52.162;5.302;2022-07-10T04:07:36;15.80;76.90
43999;DHT22;51319;52.162;5.302;2022-07-10T04:10:03;15.90;76.90
43999;DHT22;51319;52.162;5.302;2022-07-10T04:12:29;15.90;76.90
43999;DHT22;51319;52.162;5.302;2022-07-10T04:14:55;15.90;76.90
43999;DHT22;51319;52.162;5.302;2022-07-10T04:17:22;15.90;76.90
43999;DHT22;51319;52.162;5.302;2022-07-10T04:19:48;15.90;76.80
43999;DHT22;51319;52.162;5.302;2022-07-10T04:22:15;16.00;76.90
43999;DHT22;51319;52.162;5.302;2022-07-10T04:24:41;16.00;76.80
43999;DHT22;51319;52.162;5.302;2022-07-10T04:27:07;16.00;76.60
43999;DHT22;51319;52.162;5.302;2022-07-10T04:29:33;16.00;76.40
43999;DHT22;51319;52.162;5.302;2022-07-10T04:31:59;16.00;76.60
43999;DHT22;51319;52.162;5.302;2022-07-10T04:34:25;16.00;76.90
43999;DHT22;51319;52.162;5.302;2022-07-10T04:36:51;16.00;77.00
43999;DHT22;51319;52.162;5.302;2022-07-10T04:39:17;16.10;77.10
43999;DHT22;51319;52.162;5.302;2022-07-10T04:41:43;16.10;76.90
43999;DHT22;51319;52.162;5.302;2022-07-10T04:44:10;16.20;77.00
43999;DHT22;51319;52.162;5.302;2022-07-10T04:46:37;16.20;77.00
43999;DHT22;51319;52.162;5.302;2022-07-10T04:49:03;16.30;76.90
43999;DHT22;51319;52.162;5.302;2022-07-10T04:51:29;16.30;76.80
43999;DHT22;51319;52.162;5.302;2022-07-10T04:53:57;16.30;76.70
43999;DHT22;51319;52.162;5.302;2022-07-10T04:56:24;16.30;76.70
43999;DHT22;51319;52.162;5.302;2022-07-10T04:58:50;16.30;77.00
43999;DHT22;51319;52.162;5.302;2022-07-10T05:01:18;16.40;77.10
43999;DHT22;51319;52.162;5.302;2022-07-10T05:03:45;16.50;77.10
43999;DHT22;51319;52.162;5.302;2022-07-10T05:06:11;16.50;77.10
43999;DHT22;51319;52.162;5.302;2022-07-10T05:08:38;16.60;77.20
43999;DHT22;51319;52.162;5.302;2022-07-10T05:11:05;16.60;77.00
43999;DHT22;51319;52.162;5.302;2022-07-10T05:13:31;16.60;76.80
43999;DHT22;51319;52.162;5.302;2022-07-10T05:15:57;16.60;76.80
43999;DHT22;51319;52.162;5.302;2022-07-10T05:18:23;16.60;76.90
43999;DHT22;51319;52.162;5.302;2022-07-10T05:20:50;16.60;77.00
43999;DHT22;51319;52.162;5.302;2022-07-10T05:23:16;16.70;77.10
43999;DHT22;51319;52.162;5.302;2022-07-10T05:25:42;16.70;76.90
43999;DHT22;51319;52.162;5.302;2022-07-10T05:28:08;16.70;76.90
43999;DHT22;51319;52.162;5.302;2022-07-10T05:30:34;16.80;76.60
43999;DHT22;51319;52.162;5.302;2022-07-10T05:33:01;16.80;76.40
43999;DHT22;51319;52.162;5.302;2022-07-10T05:35:27;16.90;76.30
43999;DHT22;51319;52.162;5.302;2022-07-10T05:37:53;16.90;76.30
43999;DHT22;51319;52.162;5.302;2022-07-10T05:40:19;16.90;76.20
43999;DHT22;51319;52.162;5.302;2022-07-10T05:42:45;16.90;76.00
43999;DHT22;51319;52.162;5.302;2022-07-10T05:45:12;16.90;76.10
43999;DHT22;51319;52.162;5.302;2022-07-10T05:47:38;16.90;76.10
43999;DHT22;51319;52.162;5.302;2022-07-10T05:50:05;17.00;76.10
43999;DHT22;51319;52.162;5.302;2022-07-10T05:52:31;17.00;75.90
43999;DHT22;51319;52.162;5.302;2022-07-10T05:54:57;17.10;76.00
43999;DHT22;51319;52.162;5.302;2022-07-10T05:57:24;17.10;75.90
43999;DHT22;51319;52.162;5.302;2022-07-10T05:59:50;17.20;75.60
43999;DHT22;51319;52.162;5.302;2022-07-10T06:02:16;17.30;75.60
43999;DHT22;51319;52.162;5.302;2022-07-10T06:04:50;17.30;75.30
43999;DHT22;51319;52.162;5.302;2022-07-10T06:07:16;17.40;75.10
43999;DHT22;51319;52.162;5.302;2022-07-10T06:09:42;17.50;75.10
43999;DHT22;51319;52.162;5.302;2022-07-10T06:12:09;17.50;74.90
43999;DHT22;51319;52.162;5.302;2022-07-10T06:14:38;17.50;74.70
43999;DHT22;51319;52.162;5.302;2022-07-10T06:17:04;17.50;74.70
43999;DHT22;51319;52.162;5.302;2022-07-10T06:19:30;17.50;74.60
43999;DHT22;51319;52.162;5.302;2022-07-10T06:21:57;17.50;74.60
43999;DHT22;51319;52.162;5.302;2022-07-10T06:24:41;17.50;74.70
43999;DHT22;51319;52.162;5.302;2022-07-10T06:33:50;17.60;74.80
43999;DHT22;51319;52.162;5.302;2022-07-10T06:39:35;17.60;74.70
43999;DHT22;51319;52.162;5.302;2022-07-10T06:42:02;17.70;74.40
43999;DHT22;51319;52.162;5.302;2022-07-10T06:44:29;17.80;74.10
43999;DHT22;51319;52.162;5.302;2022-07-10T06:46:55;17.90;74.10
43999;DHT22;51319;52.162;5.302;2022-07-10T06:49:40;18.00;74.00
43999;DHT22;51319;52.162;5.302;2022-07-10T06:52:07;18.10;73.70
43999;DHT22;51319;52.162;5.302;2022-07-10T06:54:37;18.10;73.30
43999;DHT22;51319;52.162;5.302;2022-07-10T06:57:04;18.10;73.00
43999;DHT22;51319;52.162;5.302;2022-07-10T06:59:30;18.20;73.10
43999;DHT22;51319;52.162;5.302;2022-07-10T07:01:56;18.20;72.90
43999;DHT22;51319;52.162;5.302;2022-07-10T07:04:22;18.30;73.10
43999;DHT22;51319;52.162;5.302;2022-07-10T07:06:48;18.40;73.20
43999;DHT22;51319;52.162;5.302;2022-07-10T07:09:15;18.40;72.60
43999;DHT22;51319;52.162;5.302;2022-07-10T07:11:41;18.60;72.60
43999;DHT22;51319;52.162;5.302;2022-07-10T07:14:07;18.60;71.50
43999;DHT22;51319;52.162;5.302;2022-07-10T07:16:33;18.80;71.50
43999;DHT22;51319;52.162;5.302;2022-07-10T07:19:11;18.90;70.80
43999;DHT22;51319;52.162;5.302;2022-07-10T07:21:37;18.90;70.50
43999;DHT22;51319;52.162;5.302;2022-07-10T07:24:22;19.10;70.10
43999;DHT22;51319;52.162;5.302;2022-07-10T07:26:49;19.30;69.20
43999;DHT22;51319;52.162;5.302;2022-07-10T07:29:16;19.40;68.90
43999;DHT22;51319;52.162;5.302;2022-07-10T07:31:43;19.70;68.40
43999;DHT22;51319;52.162;5.302;2022-07-10T07:34:09;20.10;67.10
43999;DHT22;51319;52.162;5.302;2022-07-10T07:36:36;20.50;65.90
43999;DHT22;51319;52.162;5.302;2022-07-10T07:39:04;20.90;64.90
43999;DHT22;51319;52.162;5.302;2022-07-10T07:41:30;20.90;64.00
43999;DHT22;51319;52.162;5.302;2022-07-10T07:43:56;20.80;63.70
43999;DHT22;51319;52.162;5.302;2022-07-10T07:46:22;20.60;64.20
43999;DHT22;51319;52.162;5.302;2022-07-10T07:48:50;20.40;64.60
43999;DHT22;51319;52.162;5.302;2022-07-10T07:51:16;20.40;64.40
43999;DHT22;51319;52.162;5.302;2022-07-10T07:53:42;20.40;64.90
43999;DHT22;51319;52.162;5.302;2022-07-10T07:56:09;20.50;65.30
43999;DHT22;51319;52.162;5.302;2022-07-10T07:58:35;20.50;64.40
43999;DHT22;51319;52.162;5.302;2022-07-10T08:01:02;20.40;64.10
43999;DHT22;51319;52.162;5.302;2022-07-10T08:03:28;20.30;64.60
43999;DHT22;51319;52.162;5.302;2022-07-10T08:06:14;20.20;65.00
43999;DHT22;51319;52.162;5.302;2022-07-10T08:08:41;20.20;65.10
43999;DHT22;51319;52.162;5.302;2022-07-10T08:11:08;20.30;65.00
43999;DHT22;51319;52.162;5.302;2022-07-10T08:13:34;20.30;64.90
43999;DHT22;51319;52.162;5.302;2022-07-10T08:16:00;20.20;64.80
43999;DHT22;51319;52.162;5.302;2022-07-10T08:18:34;20.20;65.80
43999;DHT22;51319;52.162;5.302;2022-07-10T08:21:00;20.40;65.50
43999;DHT22;51319;52.162;5.302;2022-07-10T08:23:27;20.50;64.90
43999;DHT22;51319;52.162;5.302;2022-07-10T08:25:53;20.60;65.30
43999;DHT22;51319;52.162;5.302;2022-07-10T08:28:19;20.60;64.20
43999;DHT22;51319;52.162;5.302;2022-07-10T08:30:50;20.70;63.60
43999;DHT22;51319;52.162;5.302;2022-07-10T08:33:16;20.60;63.50
43999;DHT22;51319;52.162;5.302;2022-07-10T08:35:42;20.50;63.80
43999;DHT22;51319;52.162;5.302;2022-07-10T08:38:08;20.50;63.80
43999;DHT22;51319;52.162;5.302;2022-07-10T08:40:35;20.60;63.30
43999;DHT22;51319;52.162;5.302;2022-07-10T08:43:05;20.90;63.10
43999;DHT22;51319;52.162;5.302;2022-07-10T08:45:33;21.20;62.60
43999;DHT22;51319;52.162;5.302;2022-07-10T08:48:04;21.40;61.50
43999;DHT22;51319;52.162;5.302;2022-07-10T08:53:41;22.00;59.40
43999;DHT22;51319;52.162;5.302;2022-07-10T08:56:07;22.40;58.90
43999;DHT22;51319;52.162;5.302;2022-07-10T08:58:36;22.60;58.50
43999;DHT22;51319;52.162;5.302;2022-07-10T09:01:03;22.80;57.60
43999;DHT22;51319;52.162;5.302;2022-07-10T09:03:30;23.20;57.00
43999;DHT22;51319;52.162;5.302;2022-07-10T09:05:57;23.20;56.70
43999;DHT22;51319;52.162;5.302;2022-07-10T09:08:24;23.20;56.30
43999;DHT22;51319;52.162;5.302;2022-07-10T09:10:50;23.10;56.30
43999;DHT22;51319;52.162;5.302;2022-07-10T09:13:17;23.10;56.40
43999;DHT22;51319;52.162;5.302;2022-07-10T09:15:48;23.10;56.80
43999;DHT22;51319;52.162;5.302;2022-07-10T09:18:18;23.20;56.20
43999;DHT22;51319;52.162;5.302;2022-07-10T09:20:46;23.20;55.90
43999;DHT22;51319;52.162;5.302;2022-07-10T09:23:16;23.00;56.70
43999;DHT22;51319;52.162;5.302;2022-07-10T09:25:44;22.80;57.40
43999;DHT22;51319;52.162;5.302;2022-07-10T09:28:13;22.80;57.20
43999;DHT22;51319;52.162;5.302;2022-07-10T09:30:56;22.90;57.80
43999;DHT22;51319;52.162;5.302;2022-07-10T09:35:58;22.80;57.70
43999;DHT22;51319;52.162;5.302;2022-07-10T09:38:48;23.00;57.80
43999;DHT22;51319;52.162;5.302;2022-07-10T09:41:24;23.10;57.20
43999;DHT22;51319;52.162;5.302;2022-07-10T09:44:03;23.00;57.10
43999;DHT22;51319;52.162;5.302;2022-07-10T09:46:38;23.00;56.90
43999;DHT22;51319;52.162;5.302;2022-07-10T09:49:11;23.00;58.10
43999;DHT22;51319;52.162;5.302;2022-07-10T09:51:46;23.00;57.20
43999;DHT22;51319;52.162;5.302;2022-07-10T09:54:16;23.00;56.70
43999;DHT22;51319;52.162;5.302;2022-07-10T10:01:01;23.00;57.50
43999;DHT22;51319;52.162;5.302;2022-07-10T10:04:03;22.90;57.30
43999;DHT22;51319;52.162;5.302;2022-07-10T10:07:03;22.70;57.80
43999;DHT22;51319;52.162;5.302;2022-07-10T10:09:38;22.70;57.50
43999;DHT22;51319;52.162;5.302;2022-07-10T10:12:13;22.70;57.50
43999;DHT22;51319;52.162;5.302;2022-07-10T10:14:42;22.70;57.10
43999;DHT22;51319;52.162;5.302;2022-07-10T10:17:10;22.90;57.00
43999;DHT22;51319;52.162;5.302;2022-07-10T10:19:40;23.00;56.90
43999;DHT22;51319;52.162;5.302;2022-07-10T10:22:25;23.00;56.50
43999;DHT22;51319;52.162;5.302;2022-07-10T10:24:54;22.90;57.90
43999;DHT22;51319;52.162;5.302;2022-07-10T10:27:21;23.00;58.30
43999;DHT22;51319;52.162;5.302;2022-07-10T10:29:48;23.30;57.70
43999;DHT22;51319;52.162;5.302;2022-07-10T10:40:33;23.60;56.20
43999;DHT22;51319;52.162;5.302;2022-07-10T10:43:19;23.60;55.60
43999;DHT22;51319;52.162;5.302;2022-07-10T10:49:10;23.90;55.20
43999;DHT22;51319;52.162;5.302;2022-07-10T10:52:17;23.60;54.90
43999;DHT22;51319;52.162;5.302;2022-07-10T11:01:30;22.60;56.90
43999;DHT22;51319;52.162;5.302;2022-07-10T11:06:47;22.90;57.70
43999;DHT22;51319;52.162;5.302;2022-07-10T11:09:29;23.00;56.50
43999;DHT22;51319;52.162;5.302;2022-07-10T11:12:06;23.00;56.10
43999;DHT22;51319;52.162;5.302;2022-07-10T11:15:08;23.00;56.60
43999;DHT22;51319;52.162;5.302;2022-07-10T11:32:53;23.80;53.60
43999;DHT22;51319;52.162;5.302;2022-07-10T11:35:19;23.50;53.40
43999;DHT22;51319;52.162;5.302;2022-07-10T11:37:52;23.30;53.50
43999;DHT22;51319;52.162;5.302;2022-07-10T11:40:19;23.10;54.10
43999;DHT22;51319;52.162;5.302;2022-07-10T11:42:53;23.00;54.10
43999;DHT22;51319;52.162;5.302;2022-07-10T11:45:54;22.90;54.50
43999;DHT22;51319;52.162;5.302;2022-07-10T11:48:25;22.90;55.00
43999;DHT22;51319;52.162;5.302;2022-07-10T11:50:51;23.00;55.60
43999;DHT22;51319;52.162;5.302;2022-07-10T11:56:06;23.30;54.80
43999;DHT22;51319;52.162;5.302;2022-07-10T12:10:12;25.10;51.30
43999;DHT22;51319;52.162;5.302;2022-07-10T12:30:15;25.50;47.80
43999;DHT22;51319;52.162;5.302;2022-07-10T12:32:45;25.60;48.20
43999;DHT22;51319;52.162;5.302;2022-07-10T12:35:11;25.70;48.10
43999;DHT22;51319;52.162;5.302;2022-07-10T12:43:28;25.80;48.60
43999;DHT22;51319;52.162;5.302;2022-07-10T12:46:20;26.00;49.20
43999;DHT22;51319;52.162;5.302;2022-07-10T12:49:02;26.00;46.30
43999;DHT22;51319;52.162;5.302;2022-07-10T12:51:31;26.00;48.20
43999;DHT22;51319;52.162;5.302;2022-07-10T12:54:34;26.40;45.60
43999;DHT22;51319;52.162;5.302;2022-07-10T12:57:03;26.40;45.70
43999;DHT22;51319;52.162;5.302;2022-07-10T12:59:33;26.40;47.10
43999;DHT22;51319;52.162;5.302;2022-07-10T13:02:14;26.60;46.20
43999;DHT22;51319;52.162;5.302;2022-07-10T13:04:52;26.90;46.70
43999;DHT22;51319;52.162;5.302;2022-07-10T13:07:18;26.80;44.50
43999;DHT22;51319;52.162;5.302;2022-07-10T13:09:45;26.80;44.60
43999;DHT22;51319;52.162;5.302;2022-07-10T13:12:13;26.60;45.50
43999;DHT22;51319;52.162;5.302;2022-07-10T13:14:39;26.70;46.10
43999;DHT22;51319;52.162;5.302;2022-07-10T13:17:05;27.10;46.20
43999;DHT22;51319;52.162;5.302;2022-07-10T13:19:32;27.30;45.60
43999;DHT22;51319;52.162;5.302;2022-07-10T13:21:58;27.50;45.60
43999;DHT22;51319;52.162;5.302;2022-07-10T13:24:24;27.50;45.00
43999;DHT22;51319;52.162;5.302;2022-07-10T13:26:53;27.50;44.90
43999;DHT22;51319;52.162;5.302;2022-07-10T13:29:26;27.60;44.50
43999;DHT22;51319;52.162;5.302;2022-07-10T13:31:52;27.50;44.50
43999;DHT22;51319;52.162;5.302;2022-07-10T13:34:18;27.30;45.00
43999;DHT22;51319;52.162;5.302;2022-07-10T13:36:45;27.30;45.40
43999;DHT22;51319;52.162;5.302;2022-07-10T13:39:11;27.40;45.00
43999;DHT22;51319;52.162;5.302;2022-07-10T13:41:38;27.20;46.20
43999;DHT22;51319;52.162;5.302;2022-07-10T13:44:04;27.10;46.60
43999;DHT22;51319;52.162;5.302;2022-07-10T13:46:30;27.00;46.20
43999;DHT22;51319;52.162;5.302;2022-07-10T13:48:57;27.00;46.20
43999;DHT22;51319;52.162;5.302;2022-07-10T13:51:23;26.80;46.50
43999;DHT22;51319;52.162;5.302;2022-07-10T13:53:49;26.70;46.90
43999;DHT22;51319;52.162;5.302;2022-07-10T13:56:16;26.60;46.90
43999;DHT22;51319;52.162;5.302;2022-07-10T13:58:43;26.60;47.00
43999;DHT22;51319;52.162;5.302;2022-07-10T14:03:50;26.70;48.20
43999;DHT22;51319;52.162;5.302;2022-07-10T14:06:18;26.90;47.80
43999;DHT22;51319;52.162;5.302;2022-07-10T14:08:45;27.10;47.30
43999;DHT22;51319;52.162;5.302;2022-07-10T14:11:11;27.20;47.00
43999;DHT22;51319;52.162;5.302;2022-07-10T14:13:37;27.30;47.60
43999;DHT22;51319;52.162;5.302;2022-07-10T14:16:04;27.40;47.20
43999;DHT22;51319;52.162;5.302;2022-07-10T14:18:31;27.20;47.50
43999;DHT22;51319;52.162;5.302;2022-07-10T14:21:11;27.00;47.40
43999;DHT22;51319;52.162;5.302;2022-07-10T14:23:40;26.90;48.00
43999;DHT22;51319;52.162;5.302;2022-07-10T14:26:11;26.60;48.20
43999;DHT22;51319;52.162;5.302;2022-07-10T14:28:38;26.50;48.00
43999;DHT22;51319;52.162;5.302;2022-07-10T14:31:06;26.50;48.10
43999;DHT22;51319;52.162;5.302;2022-07-10T14:33:33;26.60;49.80
43999;DHT22;51319;52.162;5.302;2022-07-10T14:36:02;26.80;48.30
43999;DHT22;51319;52.162;5.302;2022-07-10T14:38:28;26.80;48.80
43999;DHT22;51319;52.162;5.302;2022-07-10T14:40:55;26.90;48.60
43999;DHT22;51319;52.162;5.302;2022-07-10T14:43:22;27.00;48.80
43999;DHT22;51319;52.162;5.302;2022-07-10T14:45:50;27.00;47.70
43999;DHT22;51319;52.162;5.302;2022-07-10T14:48:27;27.00;47.70
43999;DHT22;51319;52.162;5.302;2022-07-10T14:50:54;27.00;48.00
43999;DHT22;51319;52.162;5.302;2022-07-10T14:53:20;26.90;48.50
43999;DHT22;51319;52.162;5.302;2022-07-10T14:55:47;26.80;48.70
43999;DHT22;51319;52.162;5.302;2022-07-10T14:58:13;26.70;48.90
43999;DHT22;51319;52.162;5.302;2022-07-10T15:00:40;26.50;48.80
43999;DHT22;51319;52.162;5.302;2022-07-10T15:03:06;26.40;49.20
43999;DHT22;51319;52.162;5.302;2022-07-10T15:05:36;26.30;49.60
43999;DHT22;51319;52.162;5.302;2022-07-10T15:08:03;26.20;49.70
43999;DHT22;51319;52.162;5.302;2022-07-10T15:10:30;26.10;49.40
43999;DHT22;51319;52.162;5.302;2022-07-10T15:12:58;26.10;49.60
43999;DHT22;51319;52.162;5.302;2022-07-10T15:15:25;26.20;50.30
43999;DHT22;51319;52.162;5.302;2022-07-10T15:17:54;26.20;49.70
43999;DHT22;51319;52.162;5.302;2022-07-10T15:20:23;26.20;49.80
43999;DHT22;51319;52.162;5.302;2022-07-10T15:22:50;26.10;50.30
43999;DHT22;51319;52.162;5.302;2022-07-10T15:25:16;26.10;51.00
43999;DHT22;51319;52.162;5.302;2022-07-10T15:27:42;26.00;50.30
43999;DHT22;51319;52.162;5.302;2022-07-10T15:30:09;25.90;50.40
43999;DHT22;51319;52.162;5.302;2022-07-10T15:32:38;25.90;50.80
43999;DHT22;51319;52.162;5.302;2022-07-10T15:35:05;25.80;51.10
43999;DHT22;51319;52.162;5.302;2022-07-10T15:37:33;25.70;51.50
43999;DHT22;51319;52.162;5.302;2022-07-10T15:39:59;25.60;51.80
43999;DHT22;51319;52.162;5.302;2022-07-10T15:42:26;25.70;52.20
43999;DHT22;51319;52.162;5.302;2022-07-10T15:44:52;25.70;51.70
43999;DHT22;51319;52.162;5.302;2022-07-10T15:47:18;25.50;52.20
43999;DHT22;51319;52.162;5.302;2022-07-10T15:49:45;25.50;52.50
43999;DHT22;51319;52.162;5.302;2022-07-10T15:52:11;25.40;51.90
43999;DHT22;51319;52.162;5.302;2022-07-10T15:54:37;25.40;51.90
43999;DHT22;51319;52.162;5.302;2022-07-10T15:57:04;25.30;52.00
43999;DHT22;51319;52.162;5.302;2022-07-10T15:59:31;25.20;51.90
43999;DHT22;51319;52.162;5.302;2022-07-10T16:01:57;25.20;52.50
43999;DHT22;51319;52.162;5.302;2022-07-10T16:04:24;25.10;52.60
43999;DHT22;51319;52.162;5.302;2022-07-10T16:06:51;25.10;52.80
43999;DHT22;51319;52.162;5.302;2022-07-10T16:09:18;25.00;52.70
43999;DHT22;51319;52.162;5.302;2022-07-10T16:11:44;25.00;52.90
43999;DHT22;51319;52.162;5.302;2022-07-10T16:14:11;25.00;53.20
43999;DHT22;51319;52.162;5.302;2022-07-10T16:16:38;24.90;53.30
43999;DHT22;51319;52.162;5.302;2022-07-10T16:19:05;24.90;53.60
43999;DHT22;51319;52.162;5.302;2022-07-10T16:21:33;24.80;53.70
43999;DHT22;51319;52.162;5.302;2022-07-10T16:24:03;24.80;53.90
43999;DHT22;51319;52.162;5.302;2022-07-10T16:26:30;24.80;54.40
43999;DHT22;51319;52.162;5.302;2022-07-10T16:28:58;24.80;54.60
43999;DHT22;51319;52.162;5.302;2022-07-10T16:31:24;24.70;54.10
43999;DHT22;51319;52.162;5.302;2022-07-10T16:33:53;24.50;54.00
43999;DHT22;51319;52.162;5.302;2022-07-10T16:36:20;24.50;54.50
43999;DHT22;51319;52.162;5.302;2022-07-10T16:38:48;24.40;54.50
43999;DHT22;51319;52.162;5.302;2022-07-10T16:41:14;24.30;54.80
43999;DHT22;51319;52.162;5.302;2022-07-10T16:43:41;24.20;54.60
43999;DHT22;51319;52.162;5.302;2022-07-10T16:48:42;24.20;55.80
43999;DHT22;51319;52.162;5.302;2022-07-10T16:51:10;24.10;55.40
43999;DHT22;51319;52.162;5.302;2022-07-10T16:53:45;24.00;56.10
43999;DHT22;51319;52.162;5.302;2022-07-10T16:56:31;23.90;55.70
43999;DHT22;51319;52.162;5.302;2022-07-10T16:58:57;23.80;56.20
43999;DHT22;51319;52.162;5.302;2022-07-10T17:01:23;23.80;56.70
43999;DHT22;51319;52.162;5.302;2022-07-10T17:06:51;23.80;56.70
43999;DHT22;51319;52.162;5.302;2022-07-10T17:09:47;23.80;56.60
43999;DHT22;51319;52.162;5.302;2022-07-10T17:12:13;23.80;56.80
43999;DHT22;51319;52.162;5.302;2022-07-10T17:14:41;23.80;57.00
43999;DHT22;51319;52.162;5.302;2022-07-10T17:17:08;23.80;56.40
43999;DHT22;51319;52.162;5.302;2022-07-10T17:19:34;23.70;55.80
43999;DHT22;51319;52.162;5.302;2022-07-10T17:22:01;23.70;56.40